sensor_id;sensor_type;location;lat;lon;timestamp;pressure;altitude;pressure_sealevel;temperature;humidity
46464;BME280;32161;48.148;-1.554;2023-06-22T00:01:20;101060.69;;;20.50;83.13
46464;BME280;32161;48.148;-1.554;2023-06-22T00:03:48;101062.88;;;20.47;83.04
46464;BME280;32161;48.148;-1.554;2023-06-22T00:06:16;101054.06;;;20.45;83.07
46464;BME280;32161;48.148;-1.554;2023-06-22T00:08:45;101061.03;;;20.38;83.67
46464;BME280;32161;48.148;-1.554;2023-06-22T00:11:13;101043.91;;;20.36;83.76
46464;BME280;32161;48.148;-1.554;2023-06-22T00:13:41;101055.25;;;20.34;84.08
46464;BME280;32161;48.148;-1.554;2023-06-22T00:16:08;101042.53;;;20.33;83.88
46464;BME280;32161;48.148;-1.554;2023-06-22T00:18:36;101037.31;;;20.32;84.11
46464;BME280;32161;48.148;-1.554;2023-06-22T00:21:03;101034.84;;;20.30;84.22
46464;BME280;32161;48.148;-1.554;2023-06-22T00:23:33;101042.84;;;20.32;84.46
46464;BME280;32161;48.148;-1.554;2023-06-22T00:26:02;101035.34;;;20.37;84.66
46464;BME280;32161;48.148;-1.554;2023-06-22T00:28:30;101027.09;;;20.32;84.64
46464;BME280;32161;48.148;-1.554;2023-06-22T00:30:57;101031.78;;;20.32;84.77
46464;BME280;32161;48.148;-1.554;2023-06-22T00:33:25;101028.22;;;20.31;84.82
46464;BME280;32161;48.148;-1.554;2023-06-22T00:35:54;101041.19;;;20.31;84.89
46464;BME280;32161;48.148;-1.554;2023-06-22T00:38:21;101030.72;;;20.28;85.16
46464;BME280;32161;48.148;-1.554;2023-06-22T00:40:49;101041.19;;;20.31;85.25
46464;BME280;32161;48.148;-1.554;2023-06-22T00:43:18;101037.25;;;20.37;84.88
46464;BME280;32161;48.148;-1.554;2023-06-22T00:45:46;101029.34;;;20.30;85.50
46464;BME280;32161;48.148;-1.554;2023-06-22T00:48:14;101029.34;;;20.30;85.85
46464;BME280;32161;48.148;-1.554;2023-06-22T00:50:42;101025.50;;;20.26;85.82
46464;BME280;32161;48.148;-1.554;2023-06-22T00:53:10;101025.78;;;20.24;85.88
46464;BME280;32161;48.148;-1.554;2023-06-22T00:55:41;101016.47;;;20.15;86.07
46464;BME280;32161;48.148;-1.554;2023-06-22T00:58:10;101027.50;;;20.15;86.44
46464;BME280;32161;48.148;-1.554;2023-06-22T01:00:40;101026.38;;;20.16;86.47
46464;BME280;32161;48.148;-1.554;2023-06-22T01:03:08;101021.31;;;20.29;85.42
46464;BME280;32161;48.148;-1.554;2023-06-22T01:05:37;101012.53;;;20.21;85.95
46464;BME280;32161;48.148;-1.554;2023-06-22T01:08:20;101007.06;;;20.16;86.35
46464;BME280;32161;48.148;-1.554;2023-06-22T01:10:55;101009.56;;;20.18;86.35
46464;BME280;32161;48.148;-1.554;2023-06-22T01:13:32;101018.69;;;20.13;86.47
46464;BME280;32161;48.148;-1.554;2023-06-22T01:16:07;101011.56;;;20.07;86.99
46464;BME280;32161;48.148;-1.554;2023-06-22T01:18:37;101011.06;;;20.00;87.52
46464;BME280;32161;48.148;-1.554;2023-06-22T01:21:08;101012.19;;;19.99;87.57
46464;BME280;32161;48.148;-1.554;2023-06-22T01:23:59;101022.16;;;19.90;87.98
46464;BME280;32161;48.148;-1.554;2023-06-22T01:26:37;101024.44;;;19.78;88.56
46464;BME280;32161;48.148;-1.554;2023-06-22T01:29:10;101023.63;;;19.77;88.48
46464;BME280;32161;48.148;-1.554;2023-06-22T01:31:40;101028.63;;;19.70;89.24
46464;BME280;32161;48.148;-1.554;2023-06-22T01:34:10;101024.53;;;19.62;89.57
46464;BME280;32161;48.148;-1.554;2023-06-22T01:36:39;101012.41;;;19.58;89.57
46464;BME280;32161;48.148;-1.554;2023-06-22T01:39:08;101012.41;;;19.58;90.04
46464;BME280;32161;48.148;-1.554;2023-06-22T01:41:37;101011.00;;;19.61;90.02
46464;BME280;32161;48.148;-1.554;2023-06-22T01:44:07;101019.84;;;19.58;90.10
46464;BME280;32161;48.148;-1.554;2023-06-22T01:46:36;101008.50;;;19.69;89.75
46464;BME280;32161;48.148;-1.554;2023-06-22T01:49:05;101003.50;;;19.77;89.25
46464;BME280;32161;48.148;-1.554;2023-06-22T01:51:33;101009.03;;;19.71;89.22
46464;BME280;32161;48.148;-1.554;2023-06-22T01:54:01;101011.28;;;19.59;89.68
46464;BME280;32161;48.148;-1.554;2023-06-22T01:56:29;101003.03;;;19.64;89.96
46464;BME280;32161;48.148;-1.554;2023-06-22T01:59:02;101006.88;;;19.58;90.15
46464;BME280;32161;48.148;-1.554;2023-06-22T02:01:38;101002.50;;;19.52;90.41
46464;BME280;32161;48.148;-1.554;2023-06-22T02:04:16;101010.53;;;19.43;90.36
46464;BME280;32161;48.148;-1.554;2023-06-22T02:06:48;101010.53;;;19.43;91.00
46464;BME280;32161;48.148;-1.554;2023-06-22T02:09:20;101013.00;;;19.50;91.06
46464;BME280;32161;48.148;-1.554;2023-06-22T02:11:51;101006.94;;;19.48;90.97
46464;BME280;32161;48.148;-1.554;2023-06-22T02:14:22;101003.72;;;19.31;91.98
46464;BME280;32161;48.148;-1.554;2023-06-22T02:16:52;101005.19;;;19.08;92.85
46464;BME280;32161;48.148;-1.554;2023-06-22T02:19:23;101002.13;;;19.14;93.69
46464;BME280;32161;48.148;-1.554;2023-06-22T02:21:51;100989.16;;;19.10;93.28
46464;BME280;32161;48.148;-1.554;2023-06-22T02:24:19;100996.31;;;19.16;93.19
46464;BME280;32161;48.148;-1.554;2023-06-22T02:26:49;100997.13;;;19.26;92.88
46464;BME280;32161;48.148;-1.554;2023-06-22T02:29:17;100994.13;;;19.13;92.91
46464;BME280;32161;48.148;-1.554;2023-06-22T02:31:45;100995.47;;;19.20;92.71
46464;BME280;32161;48.148;-1.554;2023-06-22T02:34:14;100989.41;;;19.23;92.19
46464;BME280;32161;48.148;-1.554;2023-06-22T02:36:44;101002.66;;;19.16;92.54
46464;BME280;32161;48.148;-1.554;2023-06-22T02:39:18;100991.91;;;19.20;92.73
46464;BME280;32161;48.148;-1.554;2023-06-22T02:41:46;100991.03;;;19.30;91.97
46464;BME280;32161;48.148;-1.554;2023-06-22T02:44:14;100990.88;;;19.00;92.72
46464;BME280;32161;48.148;-1.554;2023-06-22T02:46:41;100989.41;;;19.23;92.43
46464;BME280;32161;48.148;-1.554;2023-06-22T02:49:09;100991.09;;;19.19;92.01
46464;BME280;32161;48.148;-1.554;2023-06-22T02:51:44;100994.94;;;19.13;92.22
46464;BME280;32161;48.148;-1.554;2023-06-22T02:54:12;100988.28;;;19.24;91.77
46464;BME280;32161;48.148;-1.554;2023-06-22T02:56:39;100986.88;;;19.32;91.23
46464;BME280;32161;48.148;-1.554;2023-06-22T02:59:10;100996.00;;;19.27;91.01
46464;BME280;32161;48.148;-1.554;2023-06-22T03:01:37;100994.88;;;19.34;90.75
46464;BME280;32161;48.148;-1.554;2023-06-22T03:04:07;100997.97;;;19.22;90.75
46464;BME280;32161;48.148;-1.554;2023-06-22T03:06:35;100997.19;;;19.11;91.51
46464;BME280;32161;48.148;-1.554;2023-06-22T03:09:05;100993.56;;;19.16;91.27
46464;BME280;32161;48.148;-1.554;2023-06-22T03:11:33;100996.53;;;19.35;90.16
46464;BME280;32161;48.148;-1.554;2023-06-22T03:14:02;100995.16;;;19.32;90.11
46464;BME280;32161;48.148;-1.554;2023-06-22T03:16:29;100995.75;;;19.24;89.56
46464;BME280;32161;48.148;-1.554;2023-06-22T03:18:57;100991.97;;;19.05;91.34
46464;BME280;32161;48.148;-1.554;2023-06-22T03:21:27;100997.69;;;19.13;90.69
46464;BME280;32161;48.148;-1.554;2023-06-22T03:23:55;101000.78;;;19.07;90.85
46464;BME280;32161;48.148;-1.554;2023-06-22T03:26:24;100991.41;;;19.02;90.91
46464;BME280;32161;48.148;-1.554;2023-06-22T03:28:52;100996.84;;;19.18;90.70
46464;BME280;32161;48.148;-1.554;2023-06-22T03:31:20;101002.63;;;19.26;90.05
46464;BME280;32161;48.148;-1.554;2023-06-22T03:33:48;101011.69;;;19.32;89.76
46464;BME280;32161;48.148;-1.554;2023-06-22T03:36:16;101015.91;;;19.14;90.36
46464;BME280;32161;48.148;-1.554;2023-06-22T03:38:45;101002.63;;;19.21;90.58
46464;BME280;32161;48.148;-1.554;2023-06-22T03:41:13;101004.25;;;19.33;89.84
46464;BME280;32161;48.148;-1.554;2023-06-22T03:43:42;101000.13;;;19.25;90.18
46464;BME280;32161;48.148;-1.554;2023-06-22T03:46:09;101004.81;;;19.24;90.14
46464;BME280;32161;48.148;-1.554;2023-06-22T03:48:37;101012.56;;;19.22;90.52
46464;BME280;32161;48.148;-1.554;2023-06-22T03:51:05;101013.94;;;19.20;90.66
46464;BME280;32161;48.148;-1.554;2023-06-22T03:53:33;101007.31;;;19.21;90.59
46464;BME280;32161;48.148;-1.554;2023-06-22T03:56:00;101016.44;;;19.16;90.65
46464;BME280;32161;48.148;-1.554;2023-06-22T03:58:28;101014.25;;;19.18;90.35
46464;BME280;32161;48.148;-1.554;2023-06-22T04:01:00;101006.00;;;19.08;91.10
46464;BME280;32161;48.148;-1.554;2023-06-22T04:03:27;101003.81;;;19.05;91.00
46464;BME280;32161;48.148;-1.554;2023-06-22T04:05:55;101019.25;;;19.01;91.18
46464;BME280;32161;48.148;-1.554;2023-06-22T04:08:23;101009.38;;;18.85;91.97
46464;BME280;32161;48.148;-1.554;2023-06-22T04:10:50;101009.06;;;18.96;91.57
46464;BME280;32161;48.148;-1.554;2023-06-22T04:13:18;101013.72;;;19.11;90.40
46464;BME280;32161;48.148;-1.554;2023-06-22T04:15:45;101014.34;;;18.77;91.33
46464;BME280;32161;48.148;-1.554;2023-06-22T04:18:14;101018.19;;;18.82;91.94
46464;BME280;32161;48.148;-1.554;2023-06-22T04:20:42;101024.25;;;18.84;92.09
46464;BME280;32161;48.148;-1.554;2023-06-22T04:23:13;101020.38;;;18.95;91.47
46464;BME280;32161;48.148;-1.554;2023-06-22T04:25:40;101028.66;;;18.85;91.80
46464;BME280;32161;48.148;-1.554;2023-06-22T04:28:08;101032.78;;;18.92;91.69
46464;BME280;32161;48.148;-1.554;2023-06-22T04:30:38;101040.19;;;19.07;90.82
46464;BME280;32161;48.148;-1.554;2023-06-22T04:33:14;101044.31;;;18.94;90.73
46464;BME280;32161;48.148;-1.554;2023-06-22T04:35:45;101043.50;;;18.99;90.98
46464;BME280;32161;48.148;-1.554;2023-06-22T04:38:13;101044.59;;;18.98;91.08
46464;BME280;32161;48.148;-1.554;2023-06-22T04:40:41;101044.31;;;18.99;90.78
46464;BME280;32161;48.148;-1.554;2023-06-22T04:43:08;101052.03;;;18.97;91.12
46464;BME280;32161;48.148;-1.554;2023-06-22T04:45:36;101044.34;;;18.84;91.53
46464;BME280;32161;48.148;-1.554;2023-06-22T04:48:05;101049.84;;;18.89;91.32
46464;BME280;32161;48.148;-1.554;2023-06-22T04:50:34;101040.22;;;18.82;90.61
46464;BME280;32161;48.148;-1.554;2023-06-22T04:53:01;101048.75;;;18.75;90.65
46464;BME280;32161;48.148;-1.554;2023-06-22T04:55:31;101042.69;;;18.88;90.33
46464;BME280;32161;48.148;-1.554;2023-06-22T04:57:59;101042.09;;;19.01;89.17
46464;BME280;32161;48.148;-1.554;2023-06-22T05:00:31;101042.41;;;18.95;89.01
46464;BME280;32161;48.148;-1.554;2023-06-22T05:03:02;101039.66;;;18.90;89.23
46464;BME280;32161;48.148;-1.554;2023-06-22T05:05:34;101037.47;;;18.92;88.94
46464;BME280;32161;48.148;-1.554;2023-06-22T05:08:01;101041.84;;;19.03;87.95
46464;BME280;32161;48.148;-1.554;2023-06-22T05:10:29;101045.41;;;19.09;88.12
46464;BME280;32161;48.148;-1.554;2023-06-22T05:12:56;101049.53;;;19.06;87.69
46464;BME280;32161;48.148;-1.554;2023-06-22T05:15:24;101057.00;;;18.90;87.69
46464;BME280;32161;48.148;-1.554;2023-06-22T05:17:56;101055.09;;;18.75;89.29
46464;BME280;32161;48.148;-1.554;2023-06-22T05:20:24;101048.50;;;18.76;88.93
46464;BME280;32161;48.148;-1.554;2023-06-22T05:22:53;101046.81;;;18.86;88.52
46464;BME280;32161;48.148;-1.554;2023-06-22T05:25:21;101049.06;;;18.84;88.36
46464;BME280;32161;48.148;-1.554;2023-06-22T05:27:48;101044.06;;;18.86;88.16
46464;BME280;32161;48.148;-1.554;2023-06-22T05:30:17;101045.44;;;18.88;87.81
46464;BME280;32161;48.148;-1.554;2023-06-22T05:32:45;101044.06;;;18.96;87.64
46464;BME280;32161;48.148;-1.554;2023-06-22T05:35:13;101045.09;;;19.10;86.80
46464;BME280;32161;48.148;-1.554;2023-06-22T05:37:40;101036.00;;;19.10;86.49
46464;BME280;32161;48.148;-1.554;2023-06-22T05:40:12;101032.97;;;19.16;86.12
46464;BME280;32161;48.148;-1.554;2023-06-22T05:42:39;101040.41;;;19.26;86.06
46464;BME280;32161;48.148;-1.554;2023-06-22T05:45:07;101037.91;;;19.24;85.81
46464;BME280;32161;48.148;-1.554;2023-06-22T05:47:35;101046.72;;;19.26;85.80
46464;BME280;32161;48.148;-1.554;2023-06-22T05:50:03;101043.34;;;19.40;85.63
46464;BME280;32161;48.148;-1.554;2023-06-22T05:52:32;101045.03;;;19.36;85.67
46464;BME280;32161;48.148;-1.554;2023-06-22T05:55:01;101054.16;;;19.31;85.39
46464;BME280;32161;48.148;-1.554;2023-06-22T05:57:30;101057.16;;;19.35;85.17
46464;BME280;32161;48.148;-1.554;2023-06-22T05:59:57;101065.47;;;19.30;86.07
46464;BME280;32161;48.148;-1.554;2023-06-22T06:02:25;101057.13;;;19.45;85.34
46464;BME280;32161;48.148;-1.554;2023-06-22T06:04:52;101052.13;;;19.57;84.29
46464;BME280;32161;48.148;-1.554;2023-06-22T06:07:21;101056.81;;;19.51;84.62
46464;BME280;32161;48.148;-1.554;2023-06-22T06:09:48;101062.31;;;19.62;84.33
46464;BME280;32161;48.148;-1.554;2023-06-22T06:12:16;101064.22;;;19.56;83.45
46464;BME280;32161;48.148;-1.554;2023-06-22T06:14:45;101064.28;;;19.46;82.92
46464;BME280;32161;48.148;-1.554;2023-06-22T06:17:13;101068.88;;;19.71;82.97
46464;BME280;32161;48.148;-1.554;2023-06-22T06:19:40;101075.41;;;19.90;81.67
46464;BME280;32161;48.148;-1.554;2023-06-22T06:22:08;101074.31;;;19.91;80.58
46464;BME280;32161;48.148;-1.554;2023-06-22T06:24:36;101071.81;;;19.95;80.84
46464;BME280;32161;48.148;-1.554;2023-06-22T06:27:03;101072.25;;;20.12;79.70
46464;BME280;32161;48.148;-1.554;2023-06-22T06:29:32;101072.78;;;20.14;79.01
46464;BME280;32161;48.148;-1.554;2023-06-22T06:32:01;101063.34;;;20.26;79.49
46464;BME280;32161;48.148;-1.554;2023-06-22T06:34:28;101067.06;;;20.40;78.73
46464;BME280;32161;48.148;-1.554;2023-06-22T06:36:56;101074.69;;;20.58;78.39
46464;BME280;32161;48.148;-1.554;2023-06-22T06:39:23;101072.66;;;20.69;77.30
46464;BME280;32161;48.148;-1.554;2023-06-22T06:41:51;101075.63;;;20.78;77.57
46464;BME280;32161;48.148;-1.554;2023-06-22T06:44:19;101075.63;;;20.78;77.49
46464;BME280;32161;48.148;-1.554;2023-06-22T06:46:46;101080.81;;;20.84;77.37
46464;BME280;32161;48.148;-1.554;2023-06-22T06:49:15;101083.53;;;20.89;77.35
46464;BME280;32161;48.148;-1.554;2023-06-22T06:51:43;101088.91;;;21.05;77.16
46464;BME280;32161;48.148;-1.554;2023-06-22T06:54:10;101084.09;;;21.15;76.56
46464;BME280;32161;48.148;-1.554;2023-06-22T06:56:38;101085.63;;;21.27;76.30
46464;BME280;32161;48.148;-1.554;2023-06-22T06:59:06;101086.66;;;21.36;76.03
46464;BME280;32161;48.148;-1.554;2023-06-22T07:01:34;101095.41;;;21.43;76.42
46464;BME280;32161;48.148;-1.554;2023-06-22T07:04:02;101084.75;;;21.55;75.42
46464;BME280;32161;48.148;-1.554;2023-06-22T07:06:31;101092.81;;;21.76;74.70
46464;BME280;32161;48.148;-1.554;2023-06-22T07:08:59;101094.44;;;21.77;74.54
46464;BME280;32161;48.148;-1.554;2023-06-22T07:11:27;101098.78;;;21.83;74.81
46464;BME280;32161;48.148;-1.554;2023-06-22T07:13:55;101104.34;;;22.02;73.76
46464;BME280;32161;48.148;-1.554;2023-06-22T07:16:22;101105.28;;;22.16;73.15
46464;BME280;32161;48.148;-1.554;2023-06-22T07:18:51;101108.09;;;22.11;72.61
46464;BME280;32161;48.148;-1.554;2023-06-22T07:21:19;101128.78;;;22.18;73.43
46464;BME280;32161;48.148;-1.554;2023-06-22T07:23:48;101113.44;;;22.26;73.03
46464;BME280;32161;48.148;-1.554;2023-06-22T07:26:16;101121.44;;;22.28;71.84
46464;BME280;32161;48.148;-1.554;2023-06-22T07:28:43;101129.44;;;22.29;73.07
46464;BME280;32161;48.148;-1.554;2023-06-22T07:31:11;101125.13;;;22.42;71.74
46464;BME280;32161;48.148;-1.554;2023-06-22T07:33:38;101131.03;;;22.35;72.00
46464;BME280;32161;48.148;-1.554;2023-06-22T07:36:06;101125.84;;;22.48;72.40
46464;BME280;32161;48.148;-1.554;2023-06-22T07:38:34;101132.88;;;22.59;72.30
46464;BME280;32161;48.148;-1.554;2023-06-22T07:41:04;101132.81;;;22.64;71.72
46464;BME280;32161;48.148;-1.554;2023-06-22T07:43:31;101140.66;;;22.76;71.77
46464;BME280;32161;48.148;-1.554;2023-06-22T07:46:00;101134.09;;;22.85;71.93
46464;BME280;32161;48.148;-1.554;2023-06-22T07:48:28;101140.84;;;22.98;72.74
46464;BME280;32161;48.148;-1.554;2023-06-22T07:50:56;101140.66;;;23.08;71.56
46464;BME280;32161;48.148;-1.554;2023-06-22T07:53:23;101149.91;;;23.04;70.76
46464;BME280;32161;48.148;-1.554;2023-06-22T07:55:51;101148.16;;;23.08;71.03
46464;BME280;32161;48.148;-1.554;2023-06-22T07:58:20;101149.06;;;23.03;69.03
46464;BME280;32161;48.148;-1.554;2023-06-22T08:00:47;101153.59;;;23.13;69.55
46464;BME280;32161;48.148;-1.554;2023-06-22T08:03:16;101160.22;;;23.31;69.36
46464;BME280;32161;48.148;-1.554;2023-06-22T08:05:43;101161.75;;;23.23;67.82
46464;BME280;32161;48.148;-1.554;2023-06-22T08:08:11;101166.16;;;23.24;68.10
46464;BME280;32161;48.148;-1.554;2023-06-22T08:10:40;101169.69;;;23.30;68.61
46464;BME280;32161;48.148;-1.554;2023-06-22T08:13:09;101159.91;;;23.32;68.30
46464;BME280;32161;48.148;-1.554;2023-06-22T08:15:38;101161.47;;;23.38;68.00
46464;BME280;32161;48.148;-1.554;2023-06-22T08:18:06;101169.19;;;23.55;68.93
46464;BME280;32161;48.148;-1.554;2023-06-22T08:20:34;101170.38;;;23.68;68.36
46464;BME280;32161;48.148;-1.554;2023-06-22T08:23:01;101176.44;;;23.84;68.17
46464;BME280;32161;48.148;-1.554;2023-06-22T08:25:32;101174.06;;;23.91;67.31
46464;BME280;32161;48.148;-1.554;2023-06-22T08:28:00;101170.56;;;23.99;67.84
46464;BME280;32161;48.148;-1.554;2023-06-22T08:30:28;101177.75;;;24.14;67.96
46464;BME280;32161;48.148;-1.554;2023-06-22T08:32:57;101175.72;;;24.28;66.90
46464;BME280;32161;48.148;-1.554;2023-06-22T08:35:25;101181.91;;;24.39;66.33
46464;BME280;32161;48.148;-1.554;2023-06-22T08:37:52;101189.72;;;24.51;65.01
46464;BME280;32161;48.148;-1.554;2023-06-22T08:40:21;101174.97;;;24.64;64.31
46464;BME280;32161;48.148;-1.554;2023-06-22T08:42:49;101178.19;;;24.80;64.47
46464;BME280;32161;48.148;-1.554;2023-06-22T08:45:17;101184.63;;;24.89;64.83
46464;BME280;32161;48.148;-1.554;2023-06-22T08:47:44;101196.50;;;25.03;63.95
46464;BME280;32161;48.148;-1.554;2023-06-22T08:50:13;101187.75;;;25.10;62.79
46464;BME280;32161;48.148;-1.554;2023-06-22T08:52:41;101191.41;;;25.19;61.56
46464;BME280;32161;48.148;-1.554;2023-06-22T08:55:09;101187.88;;;25.36;61.44
46464;BME280;32161;48.148;-1.554;2023-06-22T08:57:38;101197.50;;;25.52;61.42
46464;BME280;32161;48.148;-1.554;2023-06-22T09:00:08;101192.25;;;25.60;62.86
46464;BME280;32161;48.148;-1.554;2023-06-22T09:02:47;101197.59;;;25.78;61.47
46464;BME280;32161;48.148;-1.554;2023-06-22T09:05:16;101192.56;;;25.89;60.68
46464;BME280;32161;48.148;-1.554;2023-06-22T09:07:44;101191.28;;;25.95;60.63
46464;BME280;32161;48.148;-1.554;2023-06-22T09:10:12;101198.47;;;25.88;61.16
46464;BME280;32161;48.148;-1.554;2023-06-22T09:12:40;101192.09;;;25.87;61.04
46464;BME280;32161;48.148;-1.554;2023-06-22T09:15:09;101193.09;;;25.91;60.25
46464;BME280;32161;48.148;-1.554;2023-06-22T09:17:37;101203.59;;;26.03;59.33
46464;BME280;32161;48.148;-1.554;2023-06-22T09:20:07;101202.16;;;26.14;59.47
46464;BME280;32161;48.148;-1.554;2023-06-22T09:22:38;101203.16;;;26.27;60.33
46464;BME280;32161;48.148;-1.554;2023-06-22T09:25:07;101207.75;;;26.23;59.31
46464;BME280;32161;48.148;-1.554;2023-06-22T09:27:34;101213.03;;;26.42;59.04
46464;BME280;32161;48.148;-1.554;2023-06-22T09:30:02;101203.06;;;26.49;60.60
46464;BME280;32161;48.148;-1.554;2023-06-22T09:32:30;101216.63;;;26.42;58.52
46464;BME280;32161;48.148;-1.554;2023-06-22T09:34:58;101215.38;;;26.48;60.41
46464;BME280;32161;48.148;-1.554;2023-06-22T09:37:25;101216.19;;;26.58;58.83
46464;BME280;32161;48.148;-1.554;2023-06-22T09:39:54;101221.41;;;26.59;59.34
46464;BME280;32161;48.148;-1.554;2023-06-22T09:42:22;101220.44;;;26.72;59.74
46464;BME280;32161;48.148;-1.554;2023-06-22T09:44:49;101227.50;;;26.78;57.69
46464;BME280;32161;48.148;-1.554;2023-06-22T09:47:17;101229.47;;;26.78;57.51
46464;BME280;32161;48.148;-1.554;2023-06-22T09:49:44;101226.84;;;26.73;57.80
46464;BME280;32161;48.148;-1.554;2023-06-22T09:52:12;101228.63;;;26.51;60.81
46464;BME280;32161;48.148;-1.554;2023-06-22T09:54:40;101227.81;;;26.60;59.26
46464;BME280;32161;48.148;-1.554;2023-06-22T09:57:09;101238.34;;;26.71;60.26
46464;BME280;32161;48.148;-1.554;2023-06-22T09:59:36;101242.91;;;26.93;58.94
46464;BME280;32161;48.148;-1.554;2023-06-22T10:02:05;101239.28;;;27.01;58.41
46464;BME280;32161;48.148;-1.554;2023-06-22T10:04:33;101239.13;;;27.24;59.17
46464;BME280;32161;48.148;-1.554;2023-06-22T10:07:01;101245.19;;;27.35;58.18
46464;BME280;32161;48.148;-1.554;2023-06-22T10:09:29;101244.31;;;27.51;57.76
46464;BME280;32161;48.148;-1.554;2023-06-22T10:11:56;101238.78;;;27.43;59.00
46464;BME280;32161;48.148;-1.554;2023-06-22T10:14:25;101241.63;;;27.25;57.65
46464;BME280;32161;48.148;-1.554;2023-06-22T10:16:55;101240.63;;;27.30;60.24
46464;BME280;32161;48.148;-1.554;2023-06-22T10:19:23;101253.72;;;27.38;59.01
46464;BME280;32161;48.148;-1.554;2023-06-22T10:21:50;101248.63;;;27.40;59.96
46464;BME280;32161;48.148;-1.554;2023-06-22T10:24:18;101254.75;;;27.34;59.13
46464;BME280;32161;48.148;-1.554;2023-06-22T10:26:45;101254.22;;;27.49;59.99
46464;BME280;32161;48.148;-1.554;2023-06-22T10:29:13;101251.84;;;27.68;55.72
46464;BME280;32161;48.148;-1.554;2023-06-22T10:31:42;101255.28;;;27.74;57.65
46464;BME280;32161;48.148;-1.554;2023-06-22T10:34:09;101245.88;;;27.87;60.02
46464;BME280;32161;48.148;-1.554;2023-06-22T10:36:37;101249.88;;;27.69;59.79
46464;BME280;32161;48.148;-1.554;2023-06-22T10:39:05;101254.28;;;27.79;58.75
46464;BME280;32161;48.148;-1.554;2023-06-22T10:41:33;101246.81;;;28.00;57.53
46464;BME280;32161;48.148;-1.554;2023-06-22T10:44:00;101245.31;;;28.03;58.08
46464;BME280;32161;48.148;-1.554;2023-06-22T10:46:28;101242.69;;;27.97;60.41
46464;BME280;32161;48.148;-1.554;2023-06-22T10:48:57;101243.97;;;28.09;57.66
46464;BME280;32161;48.148;-1.554;2023-06-22T10:51:25;101247.06;;;28.16;57.37
46464;BME280;32161;48.148;-1.554;2023-06-22T10:53:54;101245.81;;;28.34;57.77
46464;BME280;32161;48.148;-1.554;2023-06-22T10:56:21;101247.13;;;28.28;55.70
46464;BME280;32161;48.148;-1.554;2023-06-22T10:58:49;101253.34;;;28.42;56.56
46464;BME280;32161;48.148;-1.554;2023-06-22T11:01:17;101262.84;;;28.50;55.89
46464;BME280;32161;48.148;-1.554;2023-06-22T11:03:45;101268.84;;;28.61;56.69
46464;BME280;32161;48.148;-1.554;2023-06-22T11:06:14;101262.22;;;28.65;57.82
46464;BME280;32161;48.148;-1.554;2023-06-22T11:08:44;101260.03;;;28.71;57.67
46464;BME280;32161;48.148;-1.554;2023-06-22T11:11:12;101262.75;;;28.59;57.82
46464;BME280;32161;48.148;-1.554;2023-06-22T11:13:39;101265.56;;;28.59;57.98
46464;BME280;32161;48.148;-1.554;2023-06-22T11:16:07;101272.88;;;28.72;55.00
46464;BME280;32161;48.148;-1.554;2023-06-22T11:18:35;101274.88;;;28.71;57.32
46464;BME280;32161;48.148;-1.554;2023-06-22T11:21:03;101279.16;;;28.69;57.56
46464;BME280;32161;48.148;-1.554;2023-06-22T11:23:31;101277.09;;;28.78;57.84
46464;BME280;32161;48.148;-1.554;2023-06-22T11:25:59;101279.16;;;28.69;53.37
46464;BME280;32161;48.148;-1.554;2023-06-22T11:28:27;101282.78;;;28.69;56.64
46464;BME280;32161;48.148;-1.554;2023-06-22T11:30:54;101280.72;;;28.79;55.59
46464;BME280;32161;48.148;-1.554;2023-06-22T11:33:22;101285.03;;;28.76;55.51
46464;BME280;32161;48.148;-1.554;2023-06-22T11:35:49;101284.59;;;28.86;56.29
46464;BME280;32161;48.148;-1.554;2023-06-22T11:38:17;101282.66;;;28.87;56.60
46464;BME280;32161;48.148;-1.554;2023-06-22T11:40:46;101283.75;;;28.94;55.75
46464;BME280;32161;48.148;-1.554;2023-06-22T11:43:14;101286.50;;;29.03;54.58
46464;BME280;32161;48.148;-1.554;2023-06-22T11:45:42;101281.41;;;28.96;58.07
46464;BME280;32161;48.148;-1.554;2023-06-22T11:48:09;101285.38;;;28.95;54.45
46464;BME280;32161;48.148;-1.554;2023-06-22T11:50:37;101285.19;;;29.01;54.61
46464;BME280;32161;48.148;-1.554;2023-06-22T11:53:04;101285.03;;;28.97;56.99
46464;BME280;32161;48.148;-1.554;2023-06-22T11:55:32;101289.66;;;28.93;54.59
46464;BME280;32161;48.148;-1.554;2023-06-22T11:58:01;101282.56;;;28.95;55.23
46464;BME280;32161;48.148;-1.554;2023-06-22T12:00:30;101275.88;;;29.09;54.56
46464;BME280;32161;48.148;-1.554;2023-06-22T12:02:57;101273.13;;;29.21;52.77
46464;BME280;32161;48.148;-1.554;2023-06-22T12:05:25;101277.00;;;29.29;54.54
46464;BME280;32161;48.148;-1.554;2023-06-22T12:07:53;101278.06;;;29.24;55.52
46464;BME280;32161;48.148;-1.554;2023-06-22T12:10:22;101281.25;;;29.35;54.51
46464;BME280;32161;48.148;-1.554;2023-06-22T12:12:51;101283.63;;;29.45;53.47
46464;BME280;32161;48.148;-1.554;2023-06-22T12:15:20;101292.28;;;29.52;52.91
46464;BME280;32161;48.148;-1.554;2023-06-22T12:17:47;101286.88;;;29.47;53.81
46464;BME280;32161;48.148;-1.554;2023-06-22T12:20:15;101294.38;;;29.55;54.25
46464;BME280;32161;48.148;-1.554;2023-06-22T12:22:43;101284.53;;;29.70;52.81
46464;BME280;32161;48.148;-1.554;2023-06-22T12:25:11;101280.94;;;29.82;52.92
46464;BME280;32161;48.148;-1.554;2023-06-22T12:27:39;101282.00;;;29.89;53.30
46464;BME280;32161;48.148;-1.554;2023-06-22T12:30:08;101286.91;;;29.92;51.95
46464;BME280;32161;48.148;-1.554;2023-06-22T12:32:37;101281.66;;;29.91;50.85
46464;BME280;32161;48.148;-1.554;2023-06-22T12:35:06;101293.13;;;29.98;51.78
46464;BME280;32161;48.148;-1.554;2023-06-22T12:37:40;101295.31;;;30.05;53.22
46464;BME280;32161;48.148;-1.554;2023-06-22T12:40:10;101297.19;;;30.13;54.35
46464;BME280;32161;48.148;-1.554;2023-06-22T12:42:37;101295.13;;;30.22;53.16
46464;BME280;32161;48.148;-1.554;2023-06-22T12:45:07;101299.22;;;30.25;53.46
46464;BME280;32161;48.148;-1.554;2023-06-22T12:47:35;101294.16;;;30.06;52.46